»·PEaware :: N20BH WA24-KSEA

N20BH :: WA24-KSEA

FLIGHT INFORMATION

Flight Status: Arrived
Operator: Privately registered:
United States
More flights under this callsign
Pilot: Ben H. (9170)
Aircraft: AÉROSPATIALE TRINIDAD
(TRIN)
More flights by this aircraft type
Origin: WA24 Pfister S
United States
Destination: KSEA Seattle-Tacoma Intl
United States
More flights between these airports :: More routes between these airports
Route: PSC V204 YKM V4 SEA
File this flight plan on PilotEdge
Remarks:
Altitude:
(Current/Filed)
10,000ft
Speed:
(Current/Filed)
140kts
Departed: 10-Aug-19 07:38 AM
Arrived: 10-Aug-19 08:58 AM
Distance/Time
Traveled:
149nm/1:20
Distance/Time
To Go:
Arrived

Flight Plot

Page will automatically refresh every two minutes.

Flight plan parsing failed; only flown route is shown


Map Options




Map Legend


Flown Route
Filed Route
Departure Airport
Arrival Airport
Navaid (VOR, NDB)
Fix

Horizontal Profiles

Position Reports

Time Latitude Longitude Heading Altitude Ground
Speed
10-Aug-19 07:30 46.392960 -119.023756 26 628ft 0kts
10-Aug-19 07:31 46.392960 -119.023756 26 628ft 0kts
10-Aug-19 07:32 46.392960 -119.023756 26 628ft 0kts
10-Aug-19 07:33 46.392960 -119.023756 26 628ft 0kts
10-Aug-19 07:34 46.392960 -119.023756 26 628ft 0kts
10-Aug-19 07:35 46.392960 -119.023756 26 628ft 0kts
10-Aug-19 07:36 46.392961 -119.023754 26 628ft 0kts
10-Aug-19 07:37 46.408347 -119.013235 28 974ft 80kts
10-Aug-19 07:38 46.430538 -119.005094 300 1569ft 96kts
10-Aug-19 07:39 46.413292 -119.026940 206 2274ft 94kts
10-Aug-19 07:40 46.388388 -119.043200 202 2917ft 99kts
10-Aug-19 07:41 46.363196 -119.058796 203 3560ft 98kts
10-Aug-19 07:42 46.338283 -119.074524 202 4168ft 98kts
10-Aug-19 07:43 46.313081 -119.090429 201 4742ft 100kts
10-Aug-19 07:44 46.287426 -119.106628 201 5305ft 101kts
10-Aug-19 07:45 46.273543 -119.136289 286 5809ft 110kts
10-Aug-19 07:46 46.284307 -119.178883 288 6357ft 113kts
10-Aug-19 07:47 46.294150 -119.221618 287 6894ft 112kts
10-Aug-19 07:48 46.303972 -119.264609 287 7408ft 112kts
10-Aug-19 07:49 46.313689 -119.307416 287 7920ft 113kts
10-Aug-19 07:50 46.323516 -119.350726 288 8435ft 112kts
10-Aug-19 07:51 46.333398 -119.394373 287 8929ft 113kts
10-Aug-19 07:52 46.343196 -119.437796 286 9409ft 112kts
10-Aug-19 07:53 46.352842 -119.480550 284 9863ft 110kts
10-Aug-19 07:54 46.363159 -119.526131 285 10017ft 133kts
10-Aug-19 07:55 46.375479 -119.581150 285 10015ft 149kts
10-Aug-19 07:56 46.388677 -119.639872 285 10014ft 153kts
10-Aug-19 07:57 46.401973 -119.699196 284 10013ft 154kts
10-Aug-19 07:58 46.414093 -119.753793 284 10014ft 155kts
10-Aug-19 07:59 46.427521 -119.813622 284 10014ft 155kts
10-Aug-19 08:00 46.440910 -119.873832 285 9977ft 157kts
10-Aug-19 08:01 46.454867 -119.934513 284 9968ft 156kts
10-Aug-19 08:02 46.468521 -119.994948 285 9968ft 156kts
10-Aug-19 08:03 46.482247 -120.055121 285 9973ft 155kts
10-Aug-19 08:04 46.495993 -120.115363 285 9980ft 155kts
10-Aug-19 08:05 46.509584 -120.175583 285 9988ft 156kts
10-Aug-19 08:06 46.523246 -120.235778 285 9995ft 156kts
10-Aug-19 08:08 46.536910 -120.296144 285 9996ft 156kts
10-Aug-19 08:09 46.549367 -120.351503 285 9996ft 156kts
10-Aug-19 08:10 46.561881 -120.407217 285 9996ft 157kts
10-Aug-19 08:11 46.579772 -120.464950 302 9996ft 158kts
10-Aug-19 08:12 46.603638 -120.514537 303 9996ft 158kts
10-Aug-19 08:13 46.629097 -120.567497 303 9996ft 158kts
10-Aug-19 08:14 46.654592 -120.620899 303 9997ft 158kts
10-Aug-19 08:15 46.680118 -120.674478 303 9996ft 159kts
10-Aug-19 08:16 46.704833 -120.726535 303 9996ft 159kts
10-Aug-19 08:17 46.730183 -120.779998 303 9997ft 159kts
10-Aug-19 08:18 46.755529 -120.833419 303 9998ft 158kts
10-Aug-19 08:19 46.778636 -120.882345 303 9984ft 159kts
10-Aug-19 08:20 46.804065 -120.936439 302 9962ft 160kts
10-Aug-19 08:21 46.829346 -120.990232 303 9959ft 158kts
10-Aug-19 08:22 46.854165 -121.043107 304 9984ft 157kts
10-Aug-19 08:23 46.879037 -121.095934 303 10008ft 156kts
10-Aug-19 08:24 46.903900 -121.148939 303 10029ft 156kts
10-Aug-19 08:25 46.928571 -121.201816 303 10049ft 156kts
10-Aug-19 08:26 46.953452 -121.255103 304 9979ft 161kts
10-Aug-19 08:27 46.978794 -121.309487 304 9979ft 159kts
10-Aug-19 08:27 46.999555 -121.354200 304 9988ft 158kts
10-Aug-19 08:29 47.028661 -121.416995 304 10000ft 158kts
10-Aug-19 08:30 47.053488 -121.470663 304 10005ft 157kts
10-Aug-19 08:30 47.074002 -121.515045 304 10004ft 157kts
10-Aug-19 08:31 47.098753 -121.568765 304 10002ft 157kts
10-Aug-19 08:33 47.127707 -121.631733 304 10000ft 157kts
10-Aug-19 08:33 47.148208 -121.676379 304 9998ft 157kts
10-Aug-19 08:34 47.172792 -121.729992 304 9953ft 158kts
10-Aug-19 08:35 47.198529 -121.786068 304 9480ft 168kts
10-Aug-19 08:36 47.224665 -121.843324 304 9018ft 165kts
10-Aug-19 08:37 47.250088 -121.899184 304 8550ft 162kts
10-Aug-19 08:38 47.275243 -121.954677 303 8082ft 162kts
10-Aug-19 08:39 47.299604 -122.008625 303 7998ft 152kts
10-Aug-19 08:40 47.324095 -122.062436 303 7499ft 159kts
10-Aug-19 08:41 47.348931 -122.117409 303 6985ft 160kts
10-Aug-19 08:42 47.373351 -122.171420 303 6464ft 153kts
10-Aug-19 08:43 47.399408 -122.219902 348 5926ft 152kts
10-Aug-19 08:44 47.440688 -122.216239 5 5387ft 147kts
10-Aug-19 08:45 47.481239 -122.210820 5 4846ft 145kts
10-Aug-19 08:46 47.521543 -122.205136 5 4310ft 145kts
10-Aug-19 08:47 47.561728 -122.199251 5 4004ft 145kts
10-Aug-19 08:48 47.602921 -122.193184 4 4004ft 149kts
10-Aug-19 08:49 47.620519 -122.238088 277 3590ft 132kts
10-Aug-19 08:50 47.616435 -122.285935 209 2927ft 125kts
10-Aug-19 08:51 47.584387 -122.307061 193 2267ft 125kts
10-Aug-19 08:52 47.551507 -122.310204 182 2117ft 102kts
10-Aug-19 08:53 47.526394 -122.310433 183 1687ft 84kts
10-Aug-19 08:54 47.502562 -122.310650 182 1236ft 85kts
10-Aug-19 08:55 47.479625 -122.310823 182 766ft 70kts
10-Aug-19 08:56 47.460055 -122.311033 181 438ft 67kts
10-Aug-19 08:57 47.448209 -122.311186 181 436ft 34kts
10-Aug-19 08:58 47.438715 -122.311253 190 436ft 17kts
10-Aug-19 08:59 47.438909 -122.315101 313 436ft 13kts
10-Aug-19 09:00 47.439084 -122.315334 318 436ft 0kts
10-Aug-19 09:01 47.439084 -122.315334 318 436ft 0kts
10-Aug-19 09:02 47.439084 -122.315334 318 436ft 0kts
10-Aug-19 09:03 47.439084 -122.315334 318 436ft 0kts
10-Aug-19 09:04 47.439084 -122.315334 318 436ft 0kts
10-Aug-19 09:05 47.439084 -122.315334 318 436ft 0kts
10-Aug-19 09:06 47.439084 -122.315334 318 436ft 0kts
10-Aug-19 09:07 47.439084 -122.315334 318 436ft 0kts
10-Aug-19 09:08 47.439084 -122.315334 318 436ft 0kts
10-Aug-19 09:09 47.439084 -122.315334 318 436ft 0kts
10-Aug-19 09:10 47.439084 -122.315334 318 436ft 0kts
10-Aug-19 09:11 47.439084 -122.315334 318 436ft 0kts
10-Aug-19 09:12 47.439084 -122.315334 318 436ft 0kts

Navigation Log

Ident Type
Flight plan parsing failed, navigation log unavailable